sensor_id;sensor_type;location;lat;lon;timestamp;pressure;altitude;pressure_sealevel;temperature;humidity
17383;BME280;8809;51.892;8.384;2024-03-02T00:01:36;99301.44;;;7.38;100.00
17383;BME280;8809;51.892;8.384;2024-03-02T00:04:04;99310.44;;;7.24;100.00
17383;BME280;8809;51.892;8.384;2024-03-02T00:06:34;99314.41;;;7.38;100.00
17383;BME280;8809;51.892;8.384;2024-03-02T00:09:01;99311.06;;;7.42;100.00
17383;BME280;8809;51.892;8.384;2024-03-02T00:11:28;99306.91;;;7.47;100.00
17383;BME280;8809;51.892;8.384;2024-03-02T00:13:56;99306.28;;;7.54;100.00
17383;BME280;8809;51.892;8.384;2024-03-02T00:16:23;99305.50;;;7.57;100.00
17383;BME280;8809;51.892;8.384;2024-03-02T00:18:51;99301.56;;;7.42;100.00
17383;BME280;8809;51.892;8.384;2024-03-02T00:21:18;99286.88;;;7.43;100.00
17383;BME280;8809;51.892;8.384;2024-03-02T00:23:49;99284.94;;;7.36;100.00
17383;BME280;8809;51.892;8.384;2024-03-02T00:26:17;99288.66;;;7.44;100.00
17383;BME280;8809;51.892;8.384;2024-03-02T00:28:44;99289.34;;;7.38;100.00
17383;BME280;8809;51.892;8.384;2024-03-02T00:31:12;99281.63;;;7.40;100.00
17383;BME280;8809;51.892;8.384;2024-03-02T00:33:41;99283.16;;;7.35;100.00
17383;BME280;8809;51.892;8.384;2024-03-02T00:36:10;99277.31;;;7.42;100.00
17383;BME280;8809;51.892;8.384;2024-03-02T00:38:44;99266.34;;;7.49;100.00
17383;BME280;8809;51.892;8.384;2024-03-02T00:41:20;99265.34;;;7.45;100.00
17383;BME280;8809;51.892;8.384;2024-03-02T00:43:57;99274.91;;;7.47;100.00
17383;BME280;8809;51.892;8.384;2024-03-02T00:46:24;99275.78;;;7.47;100.00
17383;BME280;8809;51.892;8.384;2024-03-02T00:48:53;99266.63;;;7.58;100.00
17383;BME280;8809;51.892;8.384;2024-03-02T00:51:21;99271.41;;;7.46;100.00
17383;BME280;8809;51.892;8.384;2024-03-02T00:53:50;99271.25;;;7.41;100.00
17383;BME280;8809;51.892;8.384;2024-03-02T00:56:19;99270.34;;;7.39;100.00
17383;BME280;8809;51.892;8.384;2024-03-02T00:58:46;99261.09;;;7.48;100.00
17383;BME280;8809;51.892;8.384;2024-03-02T01:01:13;99268.72;;;7.43;100.00
17383;BME280;8809;51.892;8.384;2024-03-02T01:03:41;99265.81;;;7.34;100.00
17383;BME280;8809;51.892;8.384;2024-03-02T01:06:09;99267.75;;;7.39;100.00
17383;BME280;8809;51.892;8.384;2024-03-02T01:08:36;99271.75;;;7.30;100.00
17383;BME280;8809;51.892;8.384;2024-03-02T01:11:03;99267.41;;;7.29;100.00
17383;BME280;8809;51.892;8.384;2024-03-02T01:13:32;99268.00;;;7.47;100.00
17383;BME280;8809;51.892;8.384;2024-03-02T01:15:59;99262.22;;;7.29;100.00
17383;BME280;8809;51.892;8.384;2024-03-02T01:18:27;99257.63;;;7.22;100.00
17383;BME280;8809;51.892;8.384;2024-03-02T01:20:54;99265.41;;;7.22;100.00
17383;BME280;8809;51.892;8.384;2024-03-02T01:23:22;99258.16;;;7.12;100.00
17383;BME280;8809;51.892;8.384;2024-03-02T01:25:49;99259.91;;;7.13;100.00
17383;BME280;8809;51.892;8.384;2024-03-02T01:28:17;99259.47;;;7.24;100.00
17383;BME280;8809;51.892;8.384;2024-03-02T01:30:47;99255.41;;;7.32;100.00
17383;BME280;8809;51.892;8.384;2024-03-02T01:33:15;99253.09;;;7.15;100.00
17383;BME280;8809;51.892;8.384;2024-03-02T01:35:42;99256.06;;;7.00;100.00
17383;BME280;8809;51.892;8.384;2024-03-02T01:38:09;99245.47;;;7.19;100.00
17383;BME280;8809;51.892;8.384;2024-03-02T01:40:37;99248.19;;;7.24;100.00
17383;BME280;8809;51.892;8.384;2024-03-02T01:43:05;99251.31;;;7.39;100.00
17383;BME280;8809;51.892;8.384;2024-03-02T01:45:32;99247.78;;;7.37;100.00
17383;BME280;8809;51.892;8.384;2024-03-02T01:48:00;99253.31;;;7.48;100.00
17383;BME280;8809;51.892;8.384;2024-03-02T01:50:29;99252.81;;;7.59;100.00
17383;BME280;8809;51.892;8.384;2024-03-02T01:52:56;99252.72;;;7.56;100.00
17383;BME280;8809;51.892;8.384;2024-03-02T01:55:24;99243.22;;;7.57;100.00
17383;BME280;8809;51.892;8.384;2024-03-02T01:57:51;99243.63;;;7.69;100.00
17383;BME280;8809;51.892;8.384;2024-03-02T02:00:20;99246.44;;;7.76;100.00
17383;BME280;8809;51.892;8.384;2024-03-02T02:02:48;99234.97;;;7.70;100.00
17383;BME280;8809;51.892;8.384;2024-03-02T02:05:17;99234.72;;;7.62;100.00
17383;BME280;8809;51.892;8.384;2024-03-02T02:07:44;99232.09;;;7.61;100.00
17383;BME280;8809;51.892;8.384;2024-03-02T02:10:12;99226.88;;;7.59;100.00
17383;BME280;8809;51.892;8.384;2024-03-02T02:12:39;99221.38;;;7.50;100.00
17383;BME280;8809;51.892;8.384;2024-03-02T02:15:22;99218.16;;;7.57;100.00
17383;BME280;8809;51.892;8.384;2024-03-02T02:17:49;99210.28;;;7.27;100.00
17383;BME280;8809;51.892;8.384;2024-03-02T02:20:18;99215.94;;;7.16;100.00
17383;BME280;8809;51.892;8.384;2024-03-02T02:22:59;99203.09;;;7.19;100.00
17383;BME280;8809;51.892;8.384;2024-03-02T02:25:27;99197.75;;;7.14;100.00
17383;BME280;8809;51.892;8.384;2024-03-02T02:27:54;99192.59;;;7.16;100.00
17383;BME280;8809;51.892;8.384;2024-03-02T02:30:23;99186.25;;;7.33;100.00
17383;BME280;8809;51.892;8.384;2024-03-02T02:32:50;99184.72;;;7.13;100.00
17383;BME280;8809;51.892;8.384;2024-03-02T02:35:20;99178.56;;;7.09;100.00
17383;BME280;8809;51.892;8.384;2024-03-02T02:37:48;99177.22;;;7.22;100.00
17383;BME280;8809;51.892;8.384;2024-03-02T02:40:18;99182.81;;;7.34;100.00
17383;BME280;8809;51.892;8.384;2024-03-02T02:42:45;99177.03;;;7.42;100.00
17383;BME280;8809;51.892;8.384;2024-03-02T02:45:12;99177.25;;;7.49;100.00
17383;BME280;8809;51.892;8.384;2024-03-02T02:47:40;99183.09;;;7.43;100.00
17383;BME280;8809;51.892;8.384;2024-03-02T02:50:08;99182.56;;;7.53;100.00
17383;BME280;8809;51.892;8.384;2024-03-02T02:52:36;99178.91;;;7.47;100.00
17383;BME280;8809;51.892;8.384;2024-03-02T02:55:06;99176.03;;;7.37;100.00
17383;BME280;8809;51.892;8.384;2024-03-02T02:57:36;99179.69;;;7.44;100.00
17383;BME280;8809;51.892;8.384;2024-03-02T03:00:06;99175.53;;;7.51;100.00
17383;BME280;8809;51.892;8.384;2024-03-02T03:02:37;99171.84;;;7.42;100.00
17383;BME280;8809;51.892;8.384;2024-03-02T03:05:06;99172.59;;;7.38;100.00
17383;BME280;8809;51.892;8.384;2024-03-02T03:07:33;99169.31;;;7.44;100.00
17383;BME280;8809;51.892;8.384;2024-03-02T03:10:00;99165.69;;;7.39;100.00
17383;BME280;8809;51.892;8.384;2024-03-02T03:12:29;99162.91;;;7.33;100.00
17383;BME280;8809;51.892;8.384;2024-03-02T03:14:58;99157.28;;;7.19;100.00
17383;BME280;8809;51.892;8.384;2024-03-02T03:17:25;99148.81;;;7.25;100.00
17383;BME280;8809;51.892;8.384;2024-03-02T03:19:52;99155.72;;;7.24;100.00
17383;BME280;8809;51.892;8.384;2024-03-02T03:22:20;99160.22;;;7.30;100.00
17383;BME280;8809;51.892;8.384;2024-03-02T03:24:47;99165.59;;;7.36;100.00
17383;BME280;8809;51.892;8.384;2024-03-02T03:27:14;99169.13;;;7.38;100.00
17383;BME280;8809;51.892;8.384;2024-03-02T03:29:41;99162.34;;;7.43;100.00
17383;BME280;8809;51.892;8.384;2024-03-02T03:32:10;99167.63;;;7.46;100.00
17383;BME280;8809;51.892;8.384;2024-03-02T03:34:37;99162.72;;;7.55;100.00
17383;BME280;8809;51.892;8.384;2024-03-02T03:37:04;99164.50;;;7.56;100.00
17383;BME280;8809;51.892;8.384;2024-03-02T03:39:31;99157.44;;;7.52;100.00
17383;BME280;8809;51.892;8.384;2024-03-02T03:41:58;99160.69;;;7.45;100.00
17383;BME280;8809;51.892;8.384;2024-03-02T03:44:25;99162.28;;;7.41;100.00
17383;BME280;8809;51.892;8.384;2024-03-02T03:46:52;99157.09;;;7.40;100.00
17383;BME280;8809;51.892;8.384;2024-03-02T03:49:20;99167.75;;;7.51;100.00
17383;BME280;8809;51.892;8.384;2024-03-02T03:51:48;99164.59;;;7.59;100.00
17383;BME280;8809;51.892;8.384;2024-03-02T03:54:15;99166.81;;;7.47;100.00
17383;BME280;8809;51.892;8.384;2024-03-02T03:56:42;99174.50;;;7.44;100.00
17383;BME280;8809;51.892;8.384;2024-03-02T03:59:09;99178.13;;;7.51;100.00
17383;BME280;8809;51.892;8.384;2024-03-02T04:01:35;99172.13;;;7.52;100.00
17383;BME280;8809;51.892;8.384;2024-03-02T04:04:03;99179.00;;;7.50;100.00
17383;BME280;8809;51.892;8.384;2024-03-02T04:06:31;99172.94;;;7.49;100.00
17383;BME280;8809;51.892;8.384;2024-03-02T04:08:58;99168.31;;;7.40;100.00
17383;BME280;8809;51.892;8.384;2024-03-02T04:11:25;99173.22;;;7.31;100.00
17383;BME280;8809;51.892;8.384;2024-03-02T04:13:56;99174.09;;;7.32;100.00
17383;BME280;8809;51.892;8.384;2024-03-02T04:16:23;99179.25;;;7.30;100.00
17383;BME280;8809;51.892;8.384;2024-03-02T04:18:51;99185.31;;;7.31;100.00
17383;BME280;8809;51.892;8.384;2024-03-02T04:21:18;99170.59;;;7.30;100.00
17383;BME280;8809;51.892;8.384;2024-03-02T04:23:46;99176.47;;;7.24;100.00
17383;BME280;8809;51.892;8.384;2024-03-02T04:26:13;99175.50;;;7.21;100.00
17383;BME280;8809;51.892;8.384;2024-03-02T04:28:45;99177.16;;;7.19;100.00
17383;BME280;8809;51.892;8.384;2024-03-02T04:31:12;99174.56;;;7.19;100.00
17383;BME280;8809;51.892;8.384;2024-03-02T04:33:39;99185.00;;;7.22;100.00
17383;BME280;8809;51.892;8.384;2024-03-02T04:36:06;99181.94;;;7.06;100.00
17383;BME280;8809;51.892;8.384;2024-03-02T04:38:37;99187.81;;;7.01;100.00
17383;BME280;8809;51.892;8.384;2024-03-02T04:41:05;99178.34;;;7.01;100.00
17383;BME280;8809;51.892;8.384;2024-03-02T04:43:33;99186.09;;;7.01;100.00
17383;BME280;8809;51.892;8.384;2024-03-02T04:46:00;99192.19;;;7.03;100.00
17383;BME280;8809;51.892;8.384;2024-03-02T04:48:27;99201.91;;;7.09;100.00
17383;BME280;8809;51.892;8.384;2024-03-02T04:50:55;99204.16;;;6.98;100.00
17383;BME280;8809;51.892;8.384;2024-03-02T04:53:22;99199.84;;;6.99;100.00
17383;BME280;8809;51.892;8.384;2024-03-02T04:55:49;99211.75;;;6.94;100.00
17383;BME280;8809;51.892;8.384;2024-03-02T04:58:54;99196.84;;;7.14;100.00
17383;BME280;8809;51.892;8.384;2024-03-02T05:01:22;99206.81;;;7.27;100.00
17383;BME280;8809;51.892;8.384;2024-03-02T05:03:49;99211.19;;;7.02;100.00
17383;BME280;8809;51.892;8.384;2024-03-02T05:06:16;99206.91;;;6.78;100.00
17383;BME280;8809;51.892;8.384;2024-03-02T05:08:43;99211.56;;;6.88;100.00
17383;BME280;8809;51.892;8.384;2024-03-02T05:11:11;99211.81;;;6.95;100.00
17383;BME280;8809;51.892;8.384;2024-03-02T05:14:15;99206.69;;;6.97;100.00
17383;BME280;8809;51.892;8.384;2024-03-02T05:16:42;99208.34;;;6.95;100.00
17383;BME280;8809;51.892;8.384;2024-03-02T05:19:09;99218.13;;;7.03;100.00
17383;BME280;8809;51.892;8.384;2024-03-02T05:21:36;99221.94;;;6.88;100.00
17383;BME280;8809;51.892;8.384;2024-03-02T05:24:04;99212.72;;;6.70;100.00
17383;BME280;8809;51.892;8.384;2024-03-02T05:26:31;99217.25;;;6.52;100.00
17383;BME280;8809;51.892;8.384;2024-03-02T05:28:58;99213.22;;;6.86;100.00
17383;BME280;8809;51.892;8.384;2024-03-02T05:31:27;99217.81;;;6.94;100.00
17383;BME280;8809;51.892;8.384;2024-03-02T05:33:54;99225.84;;;7.00;100.00
17383;BME280;8809;51.892;8.384;2024-03-02T05:36:21;99226.84;;;7.05;100.00
17383;BME280;8809;51.892;8.384;2024-03-02T05:38:48;99219.47;;;7.18;100.00
17383;BME280;8809;51.892;8.384;2024-03-02T05:41:15;99228.31;;;7.24;100.00
17383;BME280;8809;51.892;8.384;2024-03-02T05:43:42;99227.38;;;7.21;100.00
17383;BME280;8809;51.892;8.384;2024-03-02T05:46:09;99222.47;;;7.30;100.00
17383;BME280;8809;51.892;8.384;2024-03-02T05:48:38;99212.34;;;7.11;100.00
17383;BME280;8809;51.892;8.384;2024-03-02T05:51:05;99221.66;;;7.05;100.00
17383;BME280;8809;51.892;8.384;2024-03-02T05:53:32;99221.66;;;7.05;100.00
17383;BME280;8809;51.892;8.384;2024-03-02T05:55:59;99230.72;;;6.93;100.00
17383;BME280;8809;51.892;8.384;2024-03-02T05:58:26;99225.09;;;7.04;100.00
17383;BME280;8809;51.892;8.384;2024-03-02T06:01:03;99227.44;;;6.97;100.00
17383;BME280;8809;51.892;8.384;2024-03-02T06:03:31;99230.28;;;6.79;100.00
17383;BME280;8809;51.892;8.384;2024-03-02T06:06:00;99228.00;;;6.88;100.00
17383;BME280;8809;51.892;8.384;2024-03-02T06:08:27;99235.78;;;6.88;100.00
17383;BME280;8809;51.892;8.384;2024-03-02T06:10:54;99235.66;;;6.85;100.00
17383;BME280;8809;51.892;8.384;2024-03-02T06:13:22;99233.00;;;6.82;100.00
17383;BME280;8809;51.892;8.384;2024-03-02T06:15:49;99226.41;;;6.92;100.00
17383;BME280;8809;51.892;8.384;2024-03-02T06:18:16;99236.59;;;6.87;100.00
17383;BME280;8809;51.892;8.384;2024-03-02T06:20:43;99226.75;;;6.77;100.00
17383;BME280;8809;51.892;8.384;2024-03-02T06:23:11;99241.47;;;6.78;100.00
17383;BME280;8809;51.892;8.384;2024-03-02T06:25:38;99246.66;;;6.78;100.00
17383;BME280;8809;51.892;8.384;2024-03-02T06:28:05;99247.91;;;6.89;100.00
17383;BME280;8809;51.892;8.384;2024-03-02T06:30:33;99259.72;;;7.06;100.00
17383;BME280;8809;51.892;8.384;2024-03-02T06:33:00;99257.97;;;7.05;100.00
17383;BME280;8809;51.892;8.384;2024-03-02T06:35:26;99267.69;;;7.11;100.00
17383;BME280;8809;51.892;8.384;2024-03-02T06:37:53;99267.69;;;7.13;100.00
17383;BME280;8809;51.892;8.384;2024-03-02T06:40:22;99269.41;;;7.12;100.00
17383;BME280;8809;51.892;8.384;2024-03-02T06:42:49;99277.47;;;7.20;100.00
17383;BME280;8809;51.892;8.384;2024-03-02T06:45:16;99276.22;;;7.08;100.00
17383;BME280;8809;51.892;8.384;2024-03-02T06:47:43;99273.59;;;6.83;100.00
17383;BME280;8809;51.892;8.384;2024-03-02T06:50:10;99285.47;;;7.00;100.00
17383;BME280;8809;51.892;8.384;2024-03-02T06:52:37;99279.84;;;7.14;100.00
17383;BME280;8809;51.892;8.384;2024-03-02T06:55:05;99283.13;;;7.08;100.00
17383;BME280;8809;51.892;8.384;2024-03-02T06:57:33;99276.28;;;7.10;100.00
17383;BME280;8809;51.892;8.384;2024-03-02T07:00:00;99282.44;;;7.14;100.00
17383;BME280;8809;51.892;8.384;2024-03-02T07:02:30;99284.44;;;7.21;100.00
17383;BME280;8809;51.892;8.384;2024-03-02T07:04:58;99279.97;;;7.17;100.00
17383;BME280;8809;51.892;8.384;2024-03-02T07:07:25;99279.75;;;7.11;100.00
17383;BME280;8809;51.892;8.384;2024-03-02T07:09:52;99281.78;;;7.19;100.00
17383;BME280;8809;51.892;8.384;2024-03-02T07:12:19;99276.72;;;7.24;100.00
17383;BME280;8809;51.892;8.384;2024-03-02T07:14:47;99287.94;;;7.23;100.00
17383;BME280;8809;51.892;8.384;2024-03-02T07:17:22;99287.69;;;7.15;100.00
17383;BME280;8809;51.892;8.384;2024-03-02T07:19:49;99294.94;;;7.00;100.00
17383;BME280;8809;51.892;8.384;2024-03-02T07:22:16;99286.69;;;7.12;100.00
17383;BME280;8809;51.892;8.384;2024-03-02T07:24:44;99286.03;;;7.17;100.00
17383;BME280;8809;51.892;8.384;2024-03-02T07:27:12;99286.09;;;7.19;100.00
17383;BME280;8809;51.892;8.384;2024-03-02T07:29:39;99294.81;;;7.21;100.00
17383;BME280;8809;51.892;8.384;2024-03-02T07:32:08;99291.34;;;7.22;100.00
17383;BME280;8809;51.892;8.384;2024-03-02T07:34:36;99301.53;;;7.16;100.00
17383;BME280;8809;51.892;8.384;2024-03-02T07:37:04;99304.25;;;7.19;100.00
17383;BME280;8809;51.892;8.384;2024-03-02T07:39:31;99302.53;;;7.19;100.00
17383;BME280;8809;51.892;8.384;2024-03-02T07:42:00;99300.19;;;7.27;100.00
17383;BME280;8809;51.892;8.384;2024-03-02T07:44:27;99296.13;;;7.35;100.00
17383;BME280;8809;51.892;8.384;2024-03-02T07:46:54;99284.22;;;7.40;100.00
17383;BME280;8809;51.892;8.384;2024-03-02T07:49:22;99288.53;;;7.41;100.00
17383;BME280;8809;51.892;8.384;2024-03-02T07:51:49;99287.09;;;7.49;100.00
17383;BME280;8809;51.892;8.384;2024-03-02T07:54:16;99287.41;;;7.58;100.00
17383;BME280;8809;51.892;8.384;2024-03-02T07:56:43;99291.19;;;7.69;100.00
17383;BME280;8809;51.892;8.384;2024-03-02T07:59:11;99293.16;;;7.76;100.00
17383;BME280;8809;51.892;8.384;2024-03-02T08:01:40;99293.50;;;7.87;100.00
17383;BME280;8809;51.892;8.384;2024-03-02T08:04:07;99304.31;;;8.01;100.00
17383;BME280;8809;51.892;8.384;2024-03-02T08:06:36;99311.38;;;8.05;100.00
17383;BME280;8809;51.892;8.384;2024-03-02T08:09:03;99315.06;;;8.13;100.00
17383;BME280;8809;51.892;8.384;2024-03-02T08:11:35;99319.59;;;8.20;100.00
17383;BME280;8809;51.892;8.384;2024-03-02T08:14:02;99319.94;;;8.31;100.00
17383;BME280;8809;51.892;8.384;2024-03-02T08:16:29;99320.13;;;8.35;100.00
17383;BME280;8809;51.892;8.384;2024-03-02T08:18:57;99319.63;;;8.48;100.00
17383;BME280;8809;51.892;8.384;2024-03-02T08:21:24;99316.03;;;8.43;100.00
17383;BME280;8809;51.892;8.384;2024-03-02T08:23:52;99318.88;;;8.52;100.00
17383;BME280;8809;51.892;8.384;2024-03-02T08:26:19;99314.94;;;8.67;100.00
17383;BME280;8809;51.892;8.384;2024-03-02T08:28:46;99314.56;;;8.83;100.00
17383;BME280;8809;51.892;8.384;2024-03-02T08:31:13;99320.06;;;8.95;100.00
17383;BME280;8809;51.892;8.384;2024-03-02T08:33:41;99322.22;;;9.10;100.00
17383;BME280;8809;51.892;8.384;2024-03-02T08:36:09;99325.03;;;9.17;100.00
17383;BME280;8809;51.892;8.384;2024-03-02T08:38:36;99324.47;;;9.29;100.00
17383;BME280;8809;51.892;8.384;2024-03-02T08:41:06;99331.59;;;9.36;100.00
17383;BME280;8809;51.892;8.384;2024-03-02T08:43:34;99327.47;;;9.11;100.00
17383;BME280;8809;51.892;8.384;2024-03-02T08:46:01;99332.78;;;9.49;100.00
17383;BME280;8809;51.892;8.384;2024-03-02T08:48:28;99337.34;;;9.57;100.00
17383;BME280;8809;51.892;8.384;2024-03-02T08:50:55;99337.56;;;9.66;100.00
17383;BME280;8809;51.892;8.384;2024-03-02T08:53:22;99335.47;;;9.86;100.00
17383;BME280;8809;51.892;8.384;2024-03-02T08:55:49;99340.88;;;9.95;100.00
17383;BME280;8809;51.892;8.384;2024-03-02T08:58:17;99330.69;;;10.04;100.00
17383;BME280;8809;51.892;8.384;2024-03-02T09:00:46;99326.63;;;10.17;100.00
17383;BME280;8809;51.892;8.384;2024-03-02T09:03:14;99329.19;;;10.16;100.00
17383;BME280;8809;51.892;8.384;2024-03-02T09:05:41;99337.97;;;10.18;100.00
17383;BME280;8809;51.892;8.384;2024-03-02T09:08:09;99334.22;;;10.44;100.00
17383;BME280;8809;51.892;8.384;2024-03-02T09:10:36;99332.78;;;10.60;100.00
17383;BME280;8809;51.892;8.384;2024-03-02T09:13:04;99334.91;;;10.77;100.00
17383;BME280;8809;51.892;8.384;2024-03-02T09:15:32;99343.09;;;10.96;96.49
17383;BME280;8809;51.892;8.384;2024-03-02T09:18:03;99339.34;;;11.27;97.91
17383;BME280;8809;51.892;8.384;2024-03-02T09:20:30;99341.38;;;11.41;98.00
17383;BME280;8809;51.892;8.384;2024-03-02T09:22:57;99348.69;;;11.64;92.63
17383;BME280;8809;51.892;8.384;2024-03-02T09:25:24;99346.41;;;11.79;91.58
17383;BME280;8809;51.892;8.384;2024-03-02T09:27:52;99345.75;;;11.94;92.06
17383;BME280;8809;51.892;8.384;2024-03-02T09:30:19;99338.19;;;12.10;89.15
17383;BME280;8809;51.892;8.384;2024-03-02T09:32:47;99345.38;;;12.25;88.65
17383;BME280;8809;51.892;8.384;2024-03-02T09:35:14;99341.25;;;12.42;86.27
17383;BME280;8809;51.892;8.384;2024-03-02T09:37:41;99344.13;;;12.62;89.43
17383;BME280;8809;51.892;8.384;2024-03-02T09:40:10;99349.69;;;12.86;88.52
17383;BME280;8809;51.892;8.384;2024-03-02T09:42:37;99344.63;;;13.01;88.49
17383;BME280;8809;51.892;8.384;2024-03-02T09:45:05;99344.97;;;13.29;88.36
17383;BME280;8809;51.892;8.384;2024-03-02T09:47:33;99339.81;;;13.35;80.82
17383;BME280;8809;51.892;8.384;2024-03-02T09:50:01;99351.41;;;13.60;83.87
17383;BME280;8809;51.892;8.384;2024-03-02T09:52:30;99352.34;;;13.69;80.73
17383;BME280;8809;51.892;8.384;2024-03-02T09:54:58;99359.41;;;13.77;77.37
17383;BME280;8809;51.892;8.384;2024-03-02T09:57:25;99357.78;;;13.94;79.78
17383;BME280;8809;51.892;8.384;2024-03-02T09:59:52;99351.78;;;14.05;85.05
17383;BME280;8809;51.892;8.384;2024-03-02T10:02:19;99348.59;;;14.41;86.68
17383;BME280;8809;51.892;8.384;2024-03-02T10:04:49;99347.88;;;14.70;83.56
17383;BME280;8809;51.892;8.384;2024-03-02T10:07:18;99361.91;;;14.84;82.53
17383;BME280;8809;51.892;8.384;2024-03-02T10:09:48;99348.06;;;15.18;91.59
17383;BME280;8809;51.892;8.384;2024-03-02T10:12:18;99354.25;;;15.45;86.41
17383;BME280;8809;51.892;8.384;2024-03-02T10:14:45;99359.56;;;15.57;78.34
17383;BME280;8809;51.892;8.384;2024-03-02T10:17:14;99357.84;;;15.76;79.96
17383;BME280;8809;51.892;8.384;2024-03-02T10:19:44;99353.44;;;15.94;85.31
17383;BME280;8809;51.892;8.384;2024-03-02T10:22:11;99360.44;;;16.15;87.38
17383;BME280;8809;51.892;8.384;2024-03-02T10:24:42;99337.59;;;16.52;90.99
17383;BME280;8809;51.892;8.384;2024-03-02T10:27:11;99344.50;;;16.90;97.50
17383;BME280;8809;51.892;8.384;2024-03-02T10:29:45;99335.59;;;17.20;94.24
17383;BME280;8809;51.892;8.384;2024-03-02T10:32:13;99338.13;;;17.30;88.05
17383;BME280;8809;51.892;8.384;2024-03-02T10:34:41;99329.13;;;17.69;98.08
17383;BME280;8809;51.892;8.384;2024-03-02T10:37:10;99335.09;;;17.94;93.00
17383;BME280;8809;51.892;8.384;2024-03-02T10:39:40;99331.41;;;18.13;90.65
17383;BME280;8809;51.892;8.384;2024-03-02T10:42:08;99335.03;;;18.00;70.68
17383;BME280;8809;51.892;8.384;2024-03-02T10:44:35;99324.00;;;18.49;89.14
17383;BME280;8809;51.892;8.384;2024-03-02T10:47:04;99328.56;;;18.35;74.52
17383;BME280;8809;51.892;8.384;2024-03-02T10:49:31;99328.66;;;18.26;70.24
17383;BME280;8809;51.892;8.384;2024-03-02T10:51:59;99328.09;;;18.79;85.22
17383;BME280;8809;51.892;8.384;2024-03-02T10:54:26;99321.81;;;18.89;76.82
17383;BME280;8809;51.892;8.384;2024-03-02T10:56:58;99334.78;;;19.07;74.04
17383;BME280;8809;51.892;8.384;2024-03-02T10:59:33;99315.28;;;19.14;82.33
17383;BME280;8809;51.892;8.384;2024-03-02T11:02:01;99317.03;;;19.17;79.45
17383;BME280;8809;51.892;8.384;2024-03-02T11:04:29;99316.66;;;19.43;79.41
17383;BME280;8809;51.892;8.384;2024-03-02T11:06:59;99324.41;;;19.59;80.82
17383;BME280;8809;51.892;8.384;2024-03-02T11:09:28;99322.19;;;19.86;77.12
17383;BME280;8809;51.892;8.384;2024-03-02T11:12:02;99329.84;;;20.02;78.07
17383;BME280;8809;51.892;8.384;2024-03-02T11:14:30;99339.00;;;19.83;75.56
17383;BME280;8809;51.892;8.384;2024-03-02T11:17:00;99343.66;;;19.68;69.97
17383;BME280;8809;51.892;8.384;2024-03-02T11:19:29;99341.22;;;20.09;71.98
17383;BME280;8809;51.892;8.384;2024-03-02T11:21:57;99349.19;;;20.08;66.98
17383;BME280;8809;51.892;8.384;2024-03-02T11:24:33;99336.75;;;20.62;78.92
17383;BME280;8809;51.892;8.384;2024-03-02T11:27:03;99347.72;;;20.88;78.32
17383;BME280;8809;51.892;8.384;2024-03-02T11:29:43;99339.94;;;21.24;78.90
17383;BME280;8809;51.892;8.384;2024-03-02T11:32:17;99350.84;;;21.07;61.07
17383;BME280;8809;51.892;8.384;2024-03-02T11:34:46;99351.06;;;20.96;61.16
17383;BME280;8809;51.892;8.384;2024-03-02T11:37:15;99323.75;;;21.36;79.44
17383;BME280;8809;51.892;8.384;2024-03-02T11:39:44;99344.00;;;20.97;60.36
17383;BME280;8809;51.892;8.384;2024-03-02T11:42:13;99341.28;;;21.00;65.03
17383;BME280;8809;51.892;8.384;2024-03-02T11:44:42;99332.63;;;20.47;63.53
17383;BME280;8809;51.892;8.384;2024-03-02T11:47:11;99342.72;;;20.73;61.53
17383;BME280;8809;51.892;8.384;2024-03-02T11:49:41;99334.25;;;20.97;67.08
17383;BME280;8809;51.892;8.384;2024-03-02T11:52:10;99330.44;;;21.12;63.81
17383;BME280;8809;51.892;8.384;2024-03-02T11:54:38;99333.72;;;21.25;66.73
17383;BME280;8809;51.892;8.384;2024-03-02T11:57:06;99322.34;;;21.58;70.76
17383;BME280;8809;51.892;8.384;2024-03-02T11:59:38;99323.50;;;21.46;71.22
17383;BME280;8809;51.892;8.384;2024-03-02T12:02:06;99328.50;;;21.60;64.44
17383;BME280;8809;51.892;8.384;2024-03-02T12:04:34;99330.25;;;21.61;64.75
17383;BME280;8809;51.892;8.384;2024-03-02T12:07:01;99346.69;;;20.95;50.04
17383;BME280;8809;51.892;8.384;2024-03-02T12:09:28;99334.41;;;20.47;51.43
17383;BME280;8809;51.892;8.384;2024-03-02T12:12:05;99330.44;;;20.67;57.30
17383;BME280;8809;51.892;8.384;2024-03-02T12:14:33;99323.94;;;20.39;51.59
17383;BME280;8809;51.892;8.384;2024-03-02T12:17:02;99320.59;;;20.28;54.52
17383;BME280;8809;51.892;8.384;2024-03-02T12:19:30;99322.41;;;20.26;58.74
17383;BME280;8809;51.892;8.384;2024-03-02T12:21:58;99321.69;;;20.16;55.81
17383;BME280;8809;51.892;8.384;2024-03-02T12:24:27;99325.06;;;19.71;50.21
17383;BME280;8809;51.892;8.384;2024-03-02T12:26:55;99321.41;;;19.19;51.80
17383;BME280;8809;51.892;8.384;2024-03-02T12:29:23;99323.84;;;19.33;52.01
17383;BME280;8809;51.892;8.384;2024-03-02T12:31:51;99315.31;;;19.13;51.09
17383;BME280;8809;51.892;8.384;2024-03-02T12:34:21;99306.34;;;19.23;52.32
17383;BME280;8809;51.892;8.384;2024-03-02T12:36:49;99318.13;;;19.63;52.76
17383;BME280;8809;51.892;8.384;2024-03-02T12:39:19;99319.53;;;19.27;53.37
17383;BME280;8809;51.892;8.384;2024-03-02T12:41:49;99318.13;;;19.63;58.32
17383;BME280;8809;51.892;8.384;2024-03-02T12:44:17;99299.00;;;19.45;63.50
17383;BME280;8809;51.892;8.384;2024-03-02T12:46:44;99303.91;;;19.71;63.06
17383;BME280;8809;51.892;8.384;2024-03-02T12:49:14;99304.78;;;20.23;70.10
17383;BME280;8809;51.892;8.384;2024-03-02T12:51:43;99294.41;;;20.59;65.15
17383;BME280;8809;51.892;8.384;2024-03-02T12:54:12;99301.69;;;20.48;56.97
17383;BME280;8809;51.892;8.384;2024-03-02T12:56:41;99302.66;;;20.44;58.17
17383;BME280;8809;51.892;8.384;2024-03-02T12:59:17;99303.94;;;20.21;54.81
17383;BME280;8809;51.892;8.384;2024-03-02T13:01:50;99306.31;;;19.86;53.18
17383;BME280;8809;51.892;8.384;2024-03-02T13:04:21;99293.53;;;19.60;67.34
17383;BME280;8809;51.892;8.384;2024-03-02T13:06:50;99290.66;;;19.72;69.24
17383;BME280;8809;51.892;8.384;2024-03-02T13:09:19;99291.34;;;19.25;59.18
17383;BME280;8809;51.892;8.384;2024-03-02T13:11:46;99285.78;;;19.45;66.65
17383;BME280;8809;51.892;8.384;2024-03-02T13:14:13;99298.03;;;19.52;63.34
17383;BME280;8809;51.892;8.384;2024-03-02T13:16:40;99295.97;;;19.11;60.48